Impacts METAR Board
IDs:

KCLT - Charlotte/Douglas In, NC, US

Updated at: 2000 UTC 25 Apr 2018
Potential Impact None Slight Moderate High
Time 25/08Z 25/09Z 25/10Z 25/11Z 25/12Z 25/13Z 25/14Z 25/15Z 25/16Z 25/17Z 25/18Z 25/19Z 25/20Z
Temp57 58 57 57 58 59 62 66 69 70 71 72 71
Dewpt57 57 56 57 57 58 58 59 57 56 55 56 56
Altim29.75 29.76 29.77 29.78 29.80 29.80 29.80 29.81 29.82 29.80 29.80 29.79 29.78
VIS10 10 10 10 10 7 10 10 10 10 10 10 10
CIG100 22 -- 100 35 85 90 100 110 110 45 50 50
CoverBKNOVCSCTBKNBKNBKNBKNBKNBKNBKNBKNBKNBKN
FltCatVFRMVFRVFRVFRVFRVFRVFRVFRVFRVFRVFRVFRVFR
WX-----------RA--------------
WDir28026002903100310300330330340320330
WSpd5 4 0 3 3 0 4 6 10 7 7 4 6
WGst-- -- -- -- -- -- -- -- -- -- -- -- --
Raw hourly METARs
KCLT 250752Z 28005KT 10SM FEW009 SCT015 BKN100 14/14 A2975 RMK AO2 SLP070 T01390139
KCLT 250852Z 26004KT 10SM BKN022 OVC026 14/14 A2976 RMK AO2 SLP072 60001 T01440139 55003
KCLT 250952Z 00000KT 10SM SCT022 SCT055 14/13 A2977 RMK AO2 SLP075 T01390133
KCLT 251052Z 29003KT 10SM FEW020 SCT050 BKN100 14/14 A2978 RMK AO2 SLP078 T01390139
KCLT 251152Z 31003KT 10SM BKN035 BKN055 14/14 A2980 RMK AO2 SLP087 VIRGA SW 60001 70107 T01440139 10150 20139 53015
KCLT 251252Z 00000KT 7SM -RA FEW012 SCT035 BKN085 15/14 A2980 RMK AO2 RAB1158 SLP087 P0002 T01500144
KCLT 251352Z 31004KT 10SM FEW010 SCT037 BKN090 17/14 A2980 RMK AO2 RAE43 SLP086 VIRGA SE P0001 T01670144
KCLT 251452Z 30006KT 10SM FEW015 FEW040 BKN100 19/15 A2981 RMK AO2 SLP089 60003 T01890150 53002
KCLT 251552Z 33010KT 10SM SCT025 BKN110 21/14 A2982 RMK AO2 SLP090 T02060139
KCLT 251652Z 33007KT 10SM SCT037 BKN110 21/13 A2980 RMK AO2 SLP084 T02110133
KCLT 251752Z 34007KT 10SM BKN045 BKN130 22/13 A2980 RMK AO2 SLP084 60003 T02170128 10228 20144 58004
KCLT 251852Z 32004KT 10SM BKN050 BKN100 22/13 A2979 RMK AO2 SLP082 T02220133 $
KCLT 251952Z 33006KT 10SM BKN050 BKN090 22/13 A2978 RMK AO2 SLP080 T02170133 $



Page loaded:  20:19 UTC  |   01:19 PM Pacific  |   02:19 PM Mountain  |   03:19 PM Central  |   04:19 PM Eastern

 

ADVISORIES

FORECASTS

FORECASTS

OBSERVATIONS

USER TOOLS

ABOUT US